CYDP/YDP METAR and TAF weather

Enter ICAO airport designator
Station Type Date Time Source
CYDP METAR 2018/12/10 17:00 UTC NOAA

CYDP 101700Z 31018G24KT 15SM FEW030 FEW100 FEW230 M09/M15 A3003 RMK SC1AC1CI1 SC TR AC TR CI TR VIA CYFT SLP171


Station Type Date Time Source
CYDP Decoded METAR 2018/12/10 17:00 UTC NOAA

Nain, Nfld, Canada (CYDP) 56-33N 061-41W 7M
Dec 10, 2018 - 12:00 PM EST / 2018.12.10 1700 UTC
Wind: from the NW (310 degrees) at 21 MPH (18 KT) gusting to 28 MPH (24 KT):0
Visibility: 15 mile(s):0
Sky conditions: mostly clear
Temperature: 15 F (-9 C)
Windchill: -2 F (-19 C):1
Dew Point: 5 F (-15 C)
Relative Humidity: 61%
Pressure (altimeter): 30.03 in. Hg (1016 hPa)
ob: CYDP 101700Z 31018G24KT 15SM FEW030 FEW100 FEW230 M09/M15 A3003 RMK SC1AC1CI1 SC TR AC TR CI TR VIA CYFT SLP171
cycle: 17

Station Type Date Time Source
CYDP TAF 2018/12/10 14:00 UTC NOAA

TAF CYDP 101345Z 1014/1024 32015G25KT P6SM SCT020
TEMPO 1014/1024 BKN020
BECMG 1021/1023 33010G20KT
RMK NXT FCST BY 102000Z


Example: see airport list